createdAt,value
2023-03-29T00:01:36.069Z,2.10
2023-03-29T00:04:04.424Z,2.05
2023-03-29T00:06:34.707Z,1.95
2023-03-29T00:09:10.066Z,1.80
2023-03-29T00:11:40.012Z,1.85
2023-03-29T00:14:09.937Z,1.77
2023-03-29T00:16:40.021Z,1.90
2023-03-29T00:19:10.016Z,1.73
2023-03-29T00:21:39.951Z,2.17
2023-03-29T00:24:12.431Z,2.05
2023-03-29T00:26:42.449Z,2.05
2023-03-29T00:29:12.901Z,2.17
2023-03-29T00:31:44.583Z,2.17
2023-03-29T00:34:14.517Z,2.05
2023-03-29T00:36:44.516Z,2.17
2023-03-29T00:39:17.185Z,1.98
2023-03-29T00:41:47.889Z,2.20
2023-03-29T00:45:01.687Z,2.00
2023-03-29T00:47:35.490Z,2.15
2023-03-29T00:50:12.587Z,1.95
2023-03-29T00:52:46.468Z,2.30
2023-03-29T00:55:24.312Z,2.03
2023-03-29T00:57:56.240Z,2.20
2023-03-29T01:00:32.847Z,2.03
2023-03-29T01:03:09.133Z,2.10
2023-03-29T01:05:42.175Z,1.90
2023-03-29T01:08:18.324Z,2.30
2023-03-29T01:10:54.652Z,1.95
2023-03-29T01:13:31.037Z,2.30
2023-03-29T01:16:02.129Z,2.38
2023-03-29T01:18:32.056Z,2.10
2023-03-29T01:21:19.560Z,2.17
2023-03-29T01:24:11.199Z,2.08
2023-03-29T01:26:55.319Z,2.13
2023-03-29T01:29:32.082Z,2.38
2023-03-29T01:32:07.123Z,2.38
2023-03-29T01:34:44.157Z,2.20
2023-03-29T01:37:22.064Z,2.25
2023-03-29T01:39:52.025Z,2.22
2023-03-29T01:42:43.256Z,2.38
2023-03-29T01:45:25.230Z,2.78
2023-03-29T01:48:01.164Z,2.22
2023-03-29T01:50:40.871Z,2.08
2023-03-29T01:53:14.586Z,2.70
2023-03-29T01:55:49.859Z,2.45
2023-03-29T01:58:21.371Z,2.45
2023-03-29T02:00:55.955Z,2.40
2023-03-29T02:03:31.138Z,2.10
2023-03-29T02:06:03.437Z,2.40
2023-03-29T02:08:33.796Z,2.50
2023-03-29T02:11:04.739Z,2.17
2023-03-29T02:13:35.110Z,2.58
2023-03-29T02:16:12.577Z,2.42
2023-03-29T02:18:43.346Z,2.40
2023-03-29T02:21:18.505Z,2.63
2023-03-29T02:23:49.406Z,2.45
2023-03-29T02:26:19.688Z,2.42
2023-03-29T02:28:49.666Z,2.10
2023-03-29T02:31:26.349Z,2.08
2023-03-29T02:34:01.658Z,2.05
2023-03-29T02:36:38.363Z,2.10
2023-03-29T02:39:09.924Z,2.30
2023-03-29T02:41:41.757Z,2.33
2023-03-29T02:44:15.113Z,2.50
2023-03-29T02:46:49.103Z,2.20
2023-03-29T02:49:19.272Z,2.22
2023-03-29T02:51:52.767Z,2.17
2023-03-29T02:54:25.950Z,2.28
2023-03-29T02:57:00.125Z,2.40
2023-03-29T02:59:30.832Z,2.17
2023-03-29T03:02:03.936Z,2.05
2023-03-29T03:04:35.605Z,2.15
2023-03-29T03:07:07.064Z,2.55
2023-03-29T03:09:37.058Z,2.38
2023-03-29T03:12:07.779Z,2.83
2023-03-29T03:14:38.140Z,2.47
2023-03-29T03:17:10.651Z,2.80
2023-03-29T03:19:41.032Z,2.72
2023-03-29T03:22:11.788Z,2.60
2023-03-29T03:24:41.631Z,2.70
2023-03-29T03:27:11.877Z,2.42
2023-03-29T03:29:42.282Z,2.78
2023-03-29T03:32:15.126Z,3.25
2023-03-29T03:34:44.976Z,2.88
2023-03-29T03:37:15.625Z,3.10
2023-03-29T03:39:46.320Z,3.25
2023-03-29T03:42:16.297Z,3.08
2023-03-29T03:44:46.198Z,3.03
2023-03-29T03:47:19.021Z,3.20
2023-03-29T03:49:48.962Z,3.25
2023-03-29T03:52:18.810Z,3.40
2023-03-29T03:54:50.314Z,2.97
2023-03-29T03:57:20.359Z,2.75
2023-03-29T03:59:50.329Z,2.80
2023-03-29T04:02:23.202Z,2.90
2023-03-29T04:04:54.909Z,2.88
2023-03-29T04:07:25.504Z,2.90
2023-03-29T04:09:55.561Z,2.40
2023-03-29T04:12:25.960Z,2.70
2023-03-29T04:14:56.125Z,3.05
2023-03-29T04:17:28.684Z,3.00
2023-03-29T04:19:58.762Z,2.88
2023-03-29T04:22:28.616Z,2.85
2023-03-29T04:24:58.449Z,2.92
2023-03-29T04:27:28.349Z,3.00
2023-03-29T04:29:58.231Z,2.90
2023-03-29T04:32:30.882Z,3.00
2023-03-29T04:35:00.818Z,2.40
2023-03-29T04:37:31.411Z,3.03
2023-03-29T04:40:04.689Z,3.30
2023-03-29T04:42:35.006Z,2.45
2023-03-29T04:45:07.147Z,2.72
2023-03-29T04:47:40.053Z,2.85
2023-03-29T04:50:11.139Z,2.78
2023-03-29T04:52:41.549Z,3.28
2023-03-29T04:55:12.143Z,2.90
2023-03-29T04:57:44.825Z,2.47
2023-03-29T05:00:17.525Z,2.65
2023-03-29T05:02:50.512Z,2.50
2023-03-29T05:05:21.221Z,2.50
2023-03-29T05:07:51.292Z,2.70
2023-03-29T05:10:21.712Z,2.60
2023-03-29T05:12:54.217Z,3.15
2023-03-29T05:15:24.669Z,2.40
2023-03-29T05:17:57.205Z,2.10
2023-03-29T05:20:28.677Z,1.90
2023-03-29T05:22:59.888Z,2.50
2023-03-29T05:25:30.421Z,2.20
2023-03-29T05:28:01.752Z,2.60
2023-03-29T05:30:31.722Z,2.13
2023-03-29T05:33:05.808Z,2.47
2023-03-29T05:35:36.163Z,2.50
2023-03-29T05:38:07.325Z,2.33
2023-03-29T05:40:37.230Z,1.90
2023-03-29T05:43:07.576Z,1.90
2023-03-29T05:45:37.437Z,2.60
2023-03-29T05:48:10.749Z,2.20
2023-03-29T05:50:40.915Z,2.20
2023-03-29T05:53:10.902Z,2.30
2023-03-29T05:55:40.788Z,2.33
2023-03-29T05:58:12.398Z,2.35
2023-03-29T06:00:43.051Z,2.53
2023-03-29T06:03:22.173Z,2.60
2023-03-29T06:06:02.629Z,3.58
2023-03-29T06:08:33.493Z,4.00
2023-03-29T06:11:05.349Z,5.18
2023-03-29T06:13:37.333Z,5.00
2023-03-29T06:16:08.665Z,4.55
2023-03-29T06:18:41.526Z,4.25
2023-03-29T06:21:12.671Z,4.20
2023-03-29T06:23:42.673Z,4.38
2023-03-29T06:26:13.405Z,4.20
2023-03-29T06:28:43.470Z,4.57
2023-03-29T06:31:13.454Z,5.40
2023-03-29T06:33:46.997Z,4.53
2023-03-29T06:36:17.024Z,4.50
2023-03-29T06:38:47.305Z,4.45
2023-03-29T06:41:17.579Z,4.88
2023-03-29T06:43:47.550Z,4.47
2023-03-29T06:46:17.770Z,4.63
2023-03-29T06:48:50.428Z,4.80
2023-03-29T06:51:22.653Z,4.00
2023-03-29T06:53:53.183Z,4.22
2023-03-29T06:56:23.989Z,8.30
2023-03-29T06:58:53.958Z,6.38
2023-03-29T07:01:24.057Z,5.20
2023-03-29T07:03:58.467Z,5.30
2023-03-29T07:06:28.583Z,4.63
2023-03-29T07:08:59.942Z,3.50
2023-03-29T07:11:31.600Z,3.60
2023-03-29T07:14:02.162Z,3.95
2023-03-29T07:16:32.826Z,4.38
2023-03-29T07:19:06.663Z,5.63
2023-03-29T07:21:37.958Z,5.90
2023-03-29T07:24:08.861Z,4.28
2023-03-29T07:26:40.484Z,4.55
2023-03-29T07:29:13.941Z,4.00
2023-03-29T07:31:44.475Z,4.20
2023-03-29T07:34:17.900Z,4.05
2023-03-29T07:36:47.907Z,4.70
2023-03-29T07:39:18.301Z,4.25
2023-03-29T07:41:48.206Z,4.10
2023-03-29T07:44:19.481Z,3.92
2023-03-29T07:46:49.688Z,14.55
2023-03-29T07:49:22.322Z,2.65
2023-03-29T07:51:52.379Z,1.73
2023-03-29T07:54:22.268Z,2.22
2023-03-29T07:56:52.344Z,2.22
2023-03-29T07:59:22.485Z,2.00
2023-03-29T08:01:52.973Z,2.30
2023-03-29T08:04:25.606Z,2.15
2023-03-29T08:06:55.512Z,2.00
2023-03-29T08:09:27.331Z,2.70
2023-03-29T08:11:57.678Z,2.83
2023-03-29T08:14:28.904Z,2.53
2023-03-29T08:16:59.160Z,2.88
2023-03-29T08:19:32.401Z,2.10
2023-03-29T08:22:04.174Z,2.25
2023-03-29T08:24:34.230Z,2.30
2023-03-29T08:27:04.326Z,2.22
2023-03-29T08:29:34.246Z,2.90
2023-03-29T08:32:04.553Z,2.38
2023-03-29T08:34:37.283Z,2.30
2023-03-29T08:37:07.190Z,2.70
2023-03-29T08:39:37.799Z,2.40
2023-03-29T08:42:38.257Z,2.42
2023-03-29T08:45:14.830Z,3.35
2023-03-29T08:47:54.526Z,3.78
2023-03-29T08:50:36.206Z,2.83
2023-03-29T08:53:13.031Z,3.53
2023-03-29T08:55:45.482Z,3.13
2023-03-29T08:58:19.873Z,2.53
2023-03-29T09:00:53.405Z,2.85
2023-03-29T09:03:26.601Z,2.30
2023-03-29T09:06:02.604Z,2.58
2023-03-29T09:08:32.880Z,2.50
2023-03-29T09:11:15.506Z,2.13
2023-03-29T09:13:55.519Z,2.13
2023-03-29T09:16:32.939Z,2.28
2023-03-29T09:19:12.556Z,2.45
2023-03-29T09:21:51.745Z,2.70
2023-03-29T09:24:39.895Z,2.42
2023-03-29T09:27:13.063Z,2.10
2023-03-29T09:29:55.245Z,2.30
2023-03-29T09:32:28.943Z,2.60
2023-03-29T09:35:07.413Z,2.30
2023-03-29T09:37:42.697Z,1.90
2023-03-29T09:40:17.441Z,2.42
2023-03-29T09:42:48.948Z,2.25
2023-03-29T09:45:19.072Z,2.25
2023-03-29T09:47:51.990Z,2.55
2023-03-29T09:50:31.456Z,2.08
2023-03-29T09:53:05.552Z,2.10
2023-03-29T09:55:38.657Z,2.15
2023-03-29T09:58:16.251Z,1.55
2023-03-29T10:00:46.482Z,2.47
2023-03-29T10:03:22.065Z,2.25
2023-03-29T10:05:54.600Z,2.00
2023-03-29T10:08:30.543Z,1.85
2023-03-29T10:11:01.907Z,1.73
2023-03-29T10:13:34.226Z,1.77
2023-03-29T10:16:05.492Z,2.28
2023-03-29T10:18:37.043Z,2.20
2023-03-29T10:21:08.364Z,2.15
2023-03-29T10:23:41.425Z,2.10
2023-03-29T10:26:19.219Z,4.70
2023-03-29T10:28:49.568Z,4.97
2023-03-29T10:31:22.948Z,1.83
2023-03-29T10:33:57.694Z,1.92
2023-03-29T10:36:30.158Z,1.98
2023-03-29T10:39:06.422Z,1.75
2023-03-29T10:41:37.968Z,2.00
2023-03-29T10:44:08.668Z,1.75
2023-03-29T10:46:45.338Z,2.00
2023-03-29T10:49:22.112Z,2.10
2023-03-29T10:51:53.520Z,1.80
2023-03-29T10:54:27.314Z,1.88
2023-03-29T10:57:00.526Z,1.88
2023-03-29T10:59:34.272Z,1.67
2023-03-29T11:02:30.907Z,1.60
2023-03-29T11:05:13.696Z,2.10
2023-03-29T11:07:50.773Z,1.83
2023-03-29T11:10:36.838Z,1.65
2023-03-29T11:13:12.745Z,1.73
2023-03-29T11:15:55.439Z,1.50
2023-03-29T11:18:42.964Z,1.92
2023-03-29T11:21:22.167Z,1.75
2023-03-29T11:24:01.007Z,1.52
2023-03-29T11:26:42.128Z,2.10
2023-03-29T11:29:18.656Z,1.80
2023-03-29T11:32:00.444Z,1.63
2023-03-29T11:34:39.779Z,1.55
2023-03-29T11:37:19.884Z,1.63
2023-03-29T11:40:02.496Z,1.83
2023-03-29T11:42:38.480Z,2.08
2023-03-29T11:45:15.281Z,2.38
2023-03-29T11:47:47.720Z,1.70
2023-03-29T11:50:22.453Z,1.65
2023-03-29T11:52:57.116Z,1.75
2023-03-29T11:55:28.911Z,1.67
2023-03-29T11:58:05.371Z,1.95
2023-03-29T12:00:40.108Z,1.92
2023-03-29T12:03:16.155Z,1.65
2023-03-29T12:05:51.082Z,1.40
2023-03-29T12:08:26.421Z,1.98
2023-03-29T12:11:01.256Z,1.65
2023-03-29T12:13:37.549Z,1.92
2023-03-29T12:16:16.599Z,1.92
2023-03-29T12:18:49.569Z,1.98
2023-03-29T12:21:22.607Z,1.88
2023-03-29T12:23:53.582Z,1.95
2023-03-29T12:26:52.001Z,2.28
2023-03-29T12:29:47.642Z,2.00
2023-03-29T12:32:32.794Z,1.92
2023-03-29T12:35:22.284Z,2.40
2023-03-29T12:38:03.418Z,1.83
2023-03-29T12:40:42.923Z,2.08
2023-03-29T12:43:23.178Z,2.00
2023-03-29T12:45:59.414Z,2.45
2023-03-29T12:48:33.081Z,1.77
2023-03-29T12:51:04.794Z,3.10
2023-03-29T12:53:38.328Z,2.25
2023-03-29T12:56:15.032Z,2.38
2023-03-29T12:58:58.413Z,2.33
2023-03-29T13:01:33.651Z,2.22
2023-03-29T13:04:19.656Z,1.75
2023-03-29T13:07:03.390Z,1.60
2023-03-29T13:09:36.799Z,1.80
2023-03-29T13:12:11.000Z,2.25
2023-03-29T13:14:44.658Z,2.00
2023-03-29T13:17:28.515Z,1.52
2023-03-29T13:20:28.398Z,1.73
2023-03-29T13:23:09.090Z,2.30
2023-03-29T13:26:02.789Z,1.95
2023-03-29T13:28:41.689Z,1.30
2023-03-29T13:31:29.304Z,1.40
2023-03-29T13:34:07.806Z,1.10
2023-03-29T13:36:49.162Z,1.10
2023-03-29T13:39:23.482Z,1.20
2023-03-29T13:44:30.428Z,1.00
2023-03-29T13:47:13.135Z,1.20
2023-03-29T13:49:51.563Z,1.00
2023-03-29T13:52:27.084Z,1.00
2023-03-29T13:55:01.993Z,1.02
2023-03-29T13:57:38.903Z,1.20
2023-03-29T14:00:18.034Z,1.20
2023-03-29T14:02:53.361Z,1.30
2023-03-29T14:05:30.065Z,1.10
2023-03-29T14:08:00.689Z,1.17
2023-03-29T14:10:37.140Z,1.48
2023-03-29T14:13:07.557Z,1.35
2023-03-29T14:15:47.733Z,1.20
2023-03-29T14:18:21.414Z,1.45
2023-03-29T14:20:56.352Z,1.30
2023-03-29T14:23:28.609Z,1.60
2023-03-29T14:26:06.770Z,1.65
2023-03-29T14:28:36.951Z,1.38
2023-03-29T14:31:08.029Z,1.30
2023-03-29T14:33:38.182Z,2.10
2023-03-29T14:36:18.689Z,1.90
2023-03-29T14:38:53.409Z,2.05
2023-03-29T14:41:24.418Z,1.20
2023-03-29T14:43:54.568Z,1.00
2023-03-29T14:46:25.761Z,1.17
2023-03-29T14:48:56.158Z,1.33
2023-03-29T14:51:31.207Z,1.10
2023-03-29T14:54:03.030Z,1.10
2023-03-29T14:56:34.756Z,1.50
2023-03-29T14:59:07.348Z,1.05
2023-03-29T15:01:46.970Z,1.20
2023-03-29T15:04:16.916Z,1.30
2023-03-29T15:06:53.461Z,1.30
2023-03-29T15:09:29.766Z,1.20
2023-03-29T15:12:02.097Z,1.30
2023-03-29T15:14:37.248Z,1.23
2023-03-29T15:17:18.521Z,1.25
2023-03-29T15:19:48.515Z,1.13
2023-03-29T15:22:21.263Z,1.35
2023-03-29T15:24:51.854Z,1.40
2023-03-29T15:27:22.513Z,1.20
2023-03-29T15:29:52.482Z,1.58
2023-03-29T15:32:27.266Z,1.20
2023-03-29T15:35:05.091Z,1.33
2023-03-29T15:37:37.977Z,0.95
2023-03-29T15:40:09.964Z,1.10
2023-03-29T15:42:39.929Z,1.00
2023-03-29T15:45:17.186Z,1.08
2023-03-29T15:47:47.382Z,2.80
2023-03-29T15:50:17.881Z,1.50
2023-03-29T15:52:50.487Z,2.30
2023-03-29T15:55:20.878Z,2.28
2023-03-29T15:57:51.956Z,1.80
2023-03-29T16:00:23.846Z,1.35
2023-03-29T16:02:54.183Z,1.95
2023-03-29T16:05:24.106Z,1.38
2023-03-29T16:07:56.975Z,1.77
2023-03-29T16:10:26.907Z,1.25
2023-03-29T16:12:56.826Z,1.55
2023-03-29T16:15:27.874Z,1.42
2023-03-29T16:17:57.754Z,1.20
2023-03-29T16:20:27.790Z,1.20
2023-03-29T16:23:00.335Z,1.73
2023-03-29T16:25:30.901Z,1.67
2023-03-29T16:28:01.658Z,1.33
2023-03-29T16:30:31.656Z,2.00
2023-03-29T16:33:06.174Z,3.22
2023-03-29T16:35:40.118Z,3.83
2023-03-29T16:38:13.023Z,3.30
2023-03-29T16:40:43.833Z,2.38
2023-03-29T16:43:18.801Z,2.05
2023-03-29T16:45:48.834Z,1.92
2023-03-29T16:48:20.581Z,1.80
2023-03-29T16:50:51.341Z,1.80
2023-03-29T16:53:24.023Z,1.60
2023-03-29T16:55:53.897Z,1.58
2023-03-29T16:58:23.780Z,1.98
2023-03-29T17:00:54.629Z,1.50
2023-03-29T17:03:24.686Z,2.20
2023-03-29T17:05:58.152Z,2.83
2023-03-29T17:08:30.634Z,2.50
2023-03-29T17:11:01.233Z,3.03
2023-03-29T17:13:31.779Z,2.50
2023-03-29T17:16:02.177Z,2.05
2023-03-29T17:18:32.436Z,2.20
2023-03-29T17:21:03.278Z,1.90
2023-03-29T17:23:36.300Z,1.60
2023-03-29T17:26:07.113Z,1.98
2023-03-29T17:28:37.418Z,2.55
2023-03-29T17:31:09.867Z,3.05
2023-03-29T17:33:39.821Z,3.60
2023-03-29T17:36:10.715Z,3.70
2023-03-29T17:38:43.298Z,3.13
2023-03-29T17:41:13.195Z,3.50
2023-03-29T17:43:43.043Z,2.83
2023-03-29T17:46:12.926Z,2.55
2023-03-29T17:48:42.833Z,4.25
2023-03-29T17:51:12.718Z,4.57
2023-03-29T17:53:45.182Z,5.80
2023-03-29T17:56:15.305Z,6.63
2023-03-29T17:58:45.457Z,6.10
2023-03-29T18:01:16.877Z,5.85
2023-03-29T18:03:47.689Z,5.22
2023-03-29T18:06:20.720Z,4.72
2023-03-29T18:08:53.313Z,3.05
2023-03-29T18:11:25.777Z,3.65
2023-03-29T18:13:56.524Z,2.50
2023-03-29T18:16:26.705Z,3.10
2023-03-29T18:18:56.650Z,2.63
2023-03-29T18:21:27.568Z,2.83
2023-03-29T18:24:00.382Z,2.65
2023-03-29T18:26:30.373Z,3.10
2023-03-29T18:29:00.771Z,2.80
2023-03-29T18:31:30.926Z,2.78
2023-03-29T18:34:00.882Z,2.50
2023-03-29T18:36:30.872Z,3.10
2023-03-29T18:39:05.879Z,3.15
2023-03-29T18:41:37.380Z,3.63
2023-03-29T18:44:07.881Z,3.55
2023-03-29T18:46:37.987Z,3.90
2023-03-29T18:49:08.018Z,3.45
2023-03-29T18:51:38.446Z,4.53
2023-03-29T18:54:10.921Z,4.10
2023-03-29T18:56:40.781Z,4.40
2023-03-29T18:59:10.649Z,4.70
2023-03-29T19:01:40.777Z,4.20
2023-03-29T19:04:10.811Z,4.25
2023-03-29T19:06:41.214Z,3.88
2023-03-29T19:09:13.685Z,3.92
2023-03-29T19:11:43.706Z,4.13
2023-03-29T19:14:13.660Z,4.82
2023-03-29T19:16:43.626Z,4.00
2023-03-29T19:19:13.525Z,4.47
2023-03-29T19:21:43.458Z,4.38
2023-03-29T19:24:16.187Z,3.97
2023-03-29T19:26:48.021Z,3.85
2023-03-29T19:29:17.987Z,3.92
2023-03-29T19:31:47.927Z,4.10
2023-03-29T19:34:19.812Z,3.90
2023-03-29T19:36:49.732Z,3.67
2023-03-29T19:39:22.314Z,3.92
2023-03-29T19:41:52.951Z,3.90
2023-03-29T19:44:23.655Z,4.32
2023-03-29T19:46:54.074Z,3.58
2023-03-29T19:49:24.230Z,4.10
2023-03-29T19:51:55.692Z,4.05
2023-03-29T19:54:28.843Z,4.10
2023-03-29T19:57:00.142Z,4.40
2023-03-29T19:59:31.233Z,4.05
2023-03-29T20:02:02.403Z,4.28
2023-03-29T20:04:33.503Z,4.00
2023-03-29T20:07:04.028Z,4.05
2023-03-29T20:09:36.789Z,4.53
2023-03-29T20:12:06.932Z,4.20
2023-03-29T20:14:40.263Z,4.13
2023-03-29T20:17:10.407Z,3.65
2023-03-29T20:19:44.225Z,4.95
2023-03-29T20:22:14.821Z,3.78
2023-03-29T20:24:47.269Z,3.47
2023-03-29T20:27:20.009Z,4.03
2023-03-29T20:29:49.904Z,3.70
2023-03-29T20:32:19.881Z,4.25
2023-03-29T20:34:49.782Z,4.00
2023-03-29T20:37:23.042Z,3.70
2023-03-29T20:39:58.845Z,3.95
2023-03-29T20:42:28.759Z,3.75
2023-03-29T20:45:00.381Z,3.90
2023-03-29T20:47:31.655Z,3.78
2023-03-29T20:50:04.245Z,3.67
2023-03-29T20:52:36.091Z,3.83
2023-03-29T20:55:09.251Z,4.18
2023-03-29T20:57:40.662Z,4.30
2023-03-29T21:00:14.735Z,3.78
2023-03-29T21:02:44.657Z,3.35
2023-03-29T21:05:15.808Z,4.85
2023-03-29T21:07:48.068Z,3.75
2023-03-29T21:10:20.648Z,3.85
2023-03-29T21:12:51.088Z,3.60
2023-03-29T21:15:21.182Z,3.97
2023-03-29T21:17:51.139Z,3.70
2023-03-29T21:20:22.032Z,4.10
2023-03-29T21:22:51.971Z,4.20
2023-03-29T21:25:24.607Z,4.30
2023-03-29T21:27:54.449Z,4.32
2023-03-29T21:30:24.368Z,4.53
2023-03-29T21:32:54.264Z,4.05
2023-03-29T21:35:24.164Z,3.97
2023-03-29T21:37:53.991Z,4.22
2023-03-29T21:40:26.475Z,4.05
2023-03-29T21:42:56.362Z,3.83
2023-03-29T21:45:26.235Z,4.07
2023-03-29T21:47:56.288Z,4.07
2023-03-29T21:50:26.313Z,3.70
2023-03-29T21:52:56.715Z,3.53
2023-03-29T21:55:29.179Z,3.33
2023-03-29T21:57:59.025Z,3.75
2023-03-29T22:00:28.928Z,3.25
2023-03-29T22:02:58.879Z,3.25
2023-03-29T22:05:28.902Z,3.95
2023-03-29T22:07:58.891Z,3.28
2023-03-29T22:10:33.090Z,3.45
2023-03-29T22:13:03.481Z,3.58
2023-03-29T22:15:35.616Z,2.65
2023-03-29T22:18:05.895Z,3.00
2023-03-29T22:20:36.999Z,3.15
2023-03-29T22:23:07.462Z,2.88
2023-03-29T22:25:43.135Z,2.60
2023-03-29T22:28:13.711Z,3.10
2023-03-29T22:30:43.597Z,2.97
2023-03-29T22:33:13.470Z,3.60
2023-03-29T22:35:43.397Z,2.95
2023-03-29T22:38:13.381Z,3.47
2023-03-29T22:40:46.167Z,3.33
2023-03-29T22:43:16.094Z,3.15
2023-03-29T22:45:46.115Z,3.10
2023-03-29T22:48:16.110Z,2.75
2023-03-29T22:50:49.000Z,2.88
2023-03-29T22:53:18.907Z,2.78
2023-03-29T22:55:51.401Z,2.40
2023-03-29T22:58:21.474Z,2.22
2023-03-29T23:00:52.648Z,2.80
2023-03-29T23:03:23.330Z,2.33
2023-03-29T23:05:54.905Z,2.17
2023-03-29T23:08:24.978Z,1.98
2023-03-29T23:10:57.439Z,2.38
2023-03-29T23:13:29.285Z,2.47
2023-03-29T23:16:01.737Z,1.92
2023-03-29T23:18:34.921Z,2.10
2023-03-29T23:21:06.085Z,2.38
2023-03-29T23:23:37.097Z,2.58
2023-03-29T23:26:11.316Z,2.38
2023-03-29T23:28:41.251Z,2.60
2023-03-29T23:31:13.059Z,2.55
2023-03-29T23:33:44.317Z,2.63
2023-03-29T23:36:17.019Z,3.03
2023-03-29T23:38:48.940Z,2.33
2023-03-29T23:41:23.124Z,2.10
2023-03-29T23:43:53.710Z,2.35
2023-03-29T23:46:23.646Z,2.40
2023-03-29T23:48:53.789Z,1.98
2023-03-29T23:51:29.002Z,2.65
2023-03-29T23:53:58.989Z,2.10
2023-03-29T23:56:31.472Z,2.13
2023-03-29T23:59:01.577Z,2.00
